Bei Facebook empfehlenBei Twitter postenGoogle plusPinterest

Das Wetter im Erzgebirge am 23.03.2017

Wetter und Klima am 23.03.2017 Holzhau im Erzgebirge (630m ü.NN)
Letzte gemessene Temperatur und Uhrzeit der Messung23:45:00 Uhr3.80 °C
Temperatur (Maximum / Höchstwert) und Uhrzeit der Messung12:45:00 Uhr8.70 °C
Temperatur (Minimum / Tiefstwert) und Uhrzeit der Messung05:30:001.00 °C
Errechneter Absolutwert der Temperaturschwankungen zwischen Tmin und Tmax des Tages7.70 K
Errechnete Tagesmitteltemperatur4.45000 °C
Gesamt - Niederschlag des Tages (in flüssiger Form)0.00 Liter / m²
Luftdruck (Maximum / Höchstwert) und Zeitpunkt der Messung23:45:00 Uhr1017.10 hPa
Luftdruck (Minimum / Tiefstwert) und Zeitpunkt der Messung06:30:00 Uhr1011.30 hPa
Errechneter Absolutwert der Luftdruckschwankungen des Tages5.80 hPa
Höchste gemessene Windgeschwindigkeit und Uhrzeit der Messung10:00:00 Uhr6.48 km/h
Errechnete Windhäufigkeit in Relation zu den Messwerten des Tages13.54167 %
Niedrigste Windkühle (Windchill) und Zeitpunkt der Messung05:30:00 Uhr1.00 °C
Taupunkt (Maximum / Höchstwert) und Uhrzeit der Messung12:45:00 Uhr5.40 °C
Taupunkt (Minimum / Tiefstwert) und Uhrzeit der Messung05:45:00-0.10 °C
Anzahl der automatisch eingelesenen Messwerte 96

Detaillierte Wetter- und Klima- Messwerte für den 23.03.2017 in Holzhau im Erzgebirge (630m ü.NN)
ZeitTemperaturLuftdruckRel. LuftfeuchteWindWindrichtungWindchillTaupunktNiederschlag l/m²
23:45:003.80 °C1017.10 hPa92.00 %1.80 km/hSW3.80 °C2.60 °C 
23:30:003.80 °C1016.90 hPa92.00 %2.60 °C 
23:15:003.90 °C1016.90 hPa92.00 %2.70 °C 
23:00:003.90 °C1016.70 hPa92.00 %2.70 °C 
22:45:004.10 °C1016.70 hPa92.00 %2.90 °C 
22:30:004.10 °C1016.50 hPa92.00 %2.90 °C 
22:15:004.20 °C1016.50 hPa92.00 %3.00 °C 
22:00:004.30 °C1016.30 hPa92.00 %3.10 °C 
21:45:004.40 °C1016.10 hPa91.00 %3.10 °C 
21:30:004.40 °C1015.90 hPa91.00 %3.10 °C 
21:15:004.50 °C1015.90 hPa91.00 %3.20 °C 
21:00:004.60 °C1015.80 hPa90.00 %3.10 °C 
20:45:004.70 °C1015.60 hPa90.00 %3.20 °C 
20:30:004.80 °C1015.50 hPa90.00 %3.30 °C 
20:15:004.90 °C1015.30 hPa90.00 %3.40 °C 
20:00:004.90 °C1015.20 hPa89.00 %3.20 °C 
19:45:005.00 °C1014.90 hPa89.00 %3.30 °C 
19:30:005.20 °C1014.70 hPa89.00 %3.50 °C 
19:15:005.30 °C1014.50 hPa88.00 %3.50 °C 
19:00:005.30 °C1014.60 hPa88.00 %3.50 °C 
18:45:005.40 °C1014.30 hPa88.00 %3.60 °C 
18:30:005.50 °C1014.10 hPa88.00 %3.70 °C 
18:15:005.80 °C1014.10 hPa87.00 %3.80 °C 
18:00:005.90 °C1014.00 hPa87.00 %3.90 °C 
17:45:006.10 °C1013.80 hPa87.00 %4.10 °C 
17:30:006.30 °C1013.70 hPa87.00 %4.30 °C 
17:15:006.40 °C1013.40 hPa86.00 %4.20 °C 
17:00:006.60 °C1013.30 hPa86.00 %4.40 °C 
16:45:006.60 °C1013.10 hPa86.00 %4.40 °C 
16:30:006.40 °C1013.20 hPa87.00 %4.40 °C 
16:15:006.40 °C1013.10 hPa87.00 %4.40 °C 
16:00:006.40 °C1012.90 hPa86.00 %4.20 °C 
15:45:006.50 °C1012.90 hPa86.00 %4.30 °C 
15:30:006.60 °C1013.00 hPa86.00 %4.40 °C 
15:15:006.90 °C1013.00 hPa85.00 %4.60 °C 
15:00:007.10 °C1012.90 hPa85.00 %4.80 °C 
14:45:007.10 °C1012.80 hPa85.00 %4.80 °C 
14:30:007.00 °C1012.80 hPa85.00 %4.70 °C 
14:15:006.90 °C1012.70 hPa85.00 %4.60 °C 
14:00:006.80 °C1012.80 hPa85.00 %4.50 °C 
13:45:007.10 °C1012.80 hPa84.00 %1.44 km/hNNW7.10 °C4.60 °C 
13:30:007.30 °C1012.80 hPa83.00 %4.60 °C 
13:15:007.90 °C1013.00 hPa81.00 %4.80 °C 
13:00:008.60 °C1012.60 hPa79.00 %5.20 °C 
12:45:008.70 °C1012.90 hPa80.00 %5.40 °C 
12:30:008.30 °C1012.90 hPa81.00 %5.20 °C 
12:15:008.10 °C1012.50 hPa81.00 %5.00 °C 
12:00:007.80 °C1012.50 hPa81.00 %4.70 °C 
11:45:007.90 °C1012.60 hPa81.00 %4.80 °C 
11:30:007.80 °C1012.70 hPa82.00 %4.90 °C 
11:15:007.80 °C1012.40 hPa83.00 %1.08 km/hSO7.80 °C5.10 °C 
11:00:007.30 °C1012.40 hPa85.00 %5.00 °C 
10:45:006.80 °C1012.30 hPa84.00 %4.30 °C 
10:30:006.70 °C1012.30 hPa86.00 %4.50 °C 
10:15:005.80 °C1012.20 hPa88.00 %4.00 °C 
10:00:005.40 °C1012.10 hPa89.00 %6.48 km/hNO4.00 °C3.70 °C 
09:45:004.30 °C1012.10 hPa91.00 %3.00 °C 
09:30:003.60 °C1012.40 hPa91.00 %1.08 km/hO3.60 °C2.30 °C 
09:15:003.40 °C1012.50 hPa91.00 %2.10 °C 
09:00:003.40 °C1012.20 hPa91.00 %2.10 °C 
08:45:003.30 °C1012.20 hPa91.00 %2.00 °C 
08:30:003.10 °C1012.00 hPa91.00 %1.80 °C 
08:15:002.90 °C1012.00 hPa91.00 %1.60 °C 
08:00:002.80 °C1012.00 hPa91.00 %1.50 °C 
07:45:002.60 °C1011.90 hPa92.00 %4.68 km/hSSO2.60 °C1.40 °C 
07:30:002.40 °C1011.80 hPa92.00 %5.04 km/hOSO1.10 °C1.20 °C 
07:15:002.20 °C1011.80 hPa92.00 %1.80 km/hOSO2.20 °C1.00 °C 
07:00:001.90 °C1011.70 hPa93.00 %0.90 °C 
06:45:001.80 °C1011.60 hPa93.00 %0.80 °C 
06:30:001.60 °C1011.30 hPa93.00 %0.60 °C 
06:15:001.40 °C1011.40 hPa93.00 %0.40 °C 
06:00:001.20 °C1011.40 hPa92.00 %0.00 °C 
05:45:001.10 °C1011.50 hPa92.00 %-0.10 °C 
05:30:001.00 °C1011.50 hPa92.00 %-0.10 °C 
05:15:001.20 °C1011.50 hPa92.00 %0.00 °C 
05:00:001.30 °C1011.40 hPa92.00 %0.10 °C 
04:45:001.40 °C1011.40 hPa92.00 %0.20 °C 
04:30:001.60 °C1011.40 hPa92.00 %0.40 °C 
04:15:001.80 °C1011.40 hPa92.00 %0.60 °C 
04:00:001.80 °C1011.40 hPa92.00 %0.60 °C 
03:45:001.80 °C1011.60 hPa92.00 %0.60 °C 
03:30:001.80 °C1011.60 hPa92.00 %0.60 °C 
03:15:001.90 °C1011.40 hPa92.00 %3.24 km/hOSO1.90 °C0.70 °C 
03:00:001.90 °C1011.60 hPa91.00 %4.68 km/hOSO1.90 °C0.60 °C 
02:45:002.10 °C1012.00 hPa92.00 %0.90 °C 
02:30:002.20 °C1012.10 hPa91.00 %3.24 km/hONO2.20 °C0.90 °C 
02:15:002.30 °C1012.30 hPa91.00 %1.00 °C 
02:00:002.30 °C1012.30 hPa91.00 %1.44 km/hSO2.30 °C1.00 °C 
01:45:002.40 °C1012.40 hPa91.00 %1.10 °C 
01:30:002.40 °C1012.50 hPa91.00 %1.10 °C 
01:15:002.40 °C1012.40 hPa91.00 %1.10 °C 
01:00:002.50 °C1012.30 hPa91.00 %1.20 °C 
00:45:002.50 °C1012.50 hPa91.00 %1.20 °C 
00:30:002.50 °C1012.30 hPa91.00 %1.20 °C 
00:15:002.50 °C1012.20 hPa91.00 %1.20 °C 
00:00:002.50 °C1011.90 hPa91.00 %4.32 km/hSO2.50 °C1.20 °C 

Permanenter Link zu dieser Seite: Wetter im Erzgebirge am 23.03.2017
Performance-Info: Die Erstellung der Seite / Statistik(en) / Tabelle(n) erforderte 5 Datenbankserver-Abfrage(n) und dauerte 118 Millisekunden. (Dieser Messwert ist von der Gesamt-Auslastung des Servers abhängig.)
Erzgebirge - Wetter | Erzgebirge - Wetter (Mobilgeräte) | Komplette Klimadatenbank